Time,TemperatureF,DewpointF,PressureIn,WindDirection,WindDirectionDegrees,WindSpeedMPH,WindSpeedGustMPH,Humidity,HourlyPrecipIn,Conditions,Clouds,dailyrainin,SoftwareType,DateUTC
2013-10-24 00:07:00,47.9,34.0,29.68,NW,316,4.0,12.0,60,0.00,,,0.00,weatherlink.com 1.10,2013-10-24 04:07:00,
2013-10-24 00:22:00,48.1,34.0,29.68,West,260,6.0,12.0,59,0.00,,,0.00,weatherlink.com 1.10,2013-10-24 04:22:00,
2013-10-24 00:37:00,48.1,34.0,29.69,WNW,298,8.0,12.0,59,0.00,,,0.00,weatherlink.com 1.10,2013-10-24 04:37:00,
2013-10-24 00:52:00,48.0,34.0,29.69,WSW,242,6.0,10.0,59,0.00,,,0.00,weatherlink.com 1.10,2013-10-24 04:52:00,
2013-10-24 01:07:00,47.9,34.0,29.69,West,271,3.0,14.0,60,0.00,,,0.00,weatherlink.com 1.10,2013-10-24 05:07:00,
2013-10-24 01:22:00,47.9,34.0,29.69,WNW,289,3.0,11.0,60,0.00,,,0.00,weatherlink.com 1.10,2013-10-24 05:22:00,
2013-10-24 01:37:00,47.8,34.0,29.69,West,270,3.0,11.0,60,0.00,,,0.00,weatherlink.com 1.10,2013-10-24 05:37:00,
2013-10-24 01:52:00,47.7,34.0,29.70,NW,311,2.0,11.0,60,0.00,,,0.00,weatherlink.com 1.10,2013-10-24 05:52:00,
2013-10-24 02:07:00,47.7,34.0,29.70,West,281,5.0,7.0,60,0.00,,,0.00,weatherlink.com 1.10,2013-10-24 06:07:00,
2013-10-24 02:22:00,47.4,34.0,29.70,SW,234,2.0,7.0,61,0.00,,,0.00,weatherlink.com 1.10,2013-10-24 06:22:00,
2013-10-24 02:37:00,46.9,34.0,29.70,SW,224,0.0,9.0,62,0.00,,,0.00,weatherlink.com 1.10,2013-10-24 06:37:00,
2013-10-24 02:52:00,46.4,34.0,29.71,West,262,3.0,7.0,63,0.00,,,0.00,weatherlink.com 1.10,2013-10-24 06:52:00,
2013-10-24 03:07:00,46.1,34.0,29.71,NE,49,1.0,8.0,64,0.00,,,0.00,weatherlink.com 1.10,2013-10-24 07:07:00,
2013-10-24 03:22:00,45.6,34.0,29.71,SE,146,2.0,6.0,65,0.00,,,0.00,weatherlink.com 1.10,2013-10-24 07:22:00,
2013-10-24 03:37:00,45.2,34.0,29.71,WSW,248,1.0,7.0,66,0.00,,,0.00,weatherlink.com 1.10,2013-10-24 07:37:00,
2013-10-24 03:52:00,45.1,34.0,29.72,WSW,250,2.0,7.0,66,0.00,,,0.00,weatherlink.com 1.10,2013-10-24 07:52:00,
2013-10-24 04:07:00,44.8,34.0,29.73,WNW,293,2.0,8.0,66,0.00,,,0.00,weatherlink.com 1.10,2013-10-24 08:07:00,
2013-10-24 04:22:00,44.4,34.0,29.73,WSW,256,6.0,8.0,67,0.00,,,0.00,weatherlink.com 1.10,2013-10-24 08:22:00,
2013-10-24 04:37:00,44.0,34.0,29.74,NW,321,4.0,10.0,68,0.00,,,0.00,weatherlink.com 1.10,2013-10-24 08:37:00,
2013-10-24 04:52:00,43.6,34.0,29.75,NNW,328,2.0,9.0,69,0.00,,,0.00,weatherlink.com 1.10,2013-10-24 08:52:00,
2013-10-24 05:07:00,43.3,34.0,29.76,NNE,23,0.0,9.0,69,0.00,,,0.00,weatherlink.com 1.10,2013-10-24 09:07:00,
2013-10-24 05:22:00,43.0,33.0,29.76,SSW,205,1.0,8.0,68,0.00,,,0.00,weatherlink.com 1.10,2013-10-24 09:22:00,
2013-10-24 05:38:00,42.8,33.0,29.77,NNW,335,3.0,9.0,69,0.00,,,0.00,weatherlink.com 1.10,2013-10-24 09:38:00,
2013-10-24 05:53:00,42.5,33.0,29.78,SW,221,2.0,8.0,69,0.00,,,0.00,weatherlink.com 1.10,2013-10-24 09:53:00,
2013-10-24 06:08:00,42.3,33.0,29.78,East,80,2.0,9.0,69,0.00,,,0.00,weatherlink.com 1.10,2013-10-24 10:08:00,
2013-10-24 06:23:00,42.3,32.0,29.79,West,276,5.0,11.0,68,0.00,,,0.00,weatherlink.com 1.10,2013-10-24 10:23:00,
2013-10-24 06:38:00,42.4,32.0,29.79,NW,311,2.0,10.0,67,0.00,,,0.00,weatherlink.com 1.10,2013-10-24 10:38:00,
2013-10-24 06:53:00,42.2,32.0,29.79,West,259,4.0,10.0,67,0.00,,,0.00,weatherlink.com 1.10,2013-10-24 10:53:00,
2013-10-24 07:08:00,41.7,32.0,29.80,West,267,2.0,7.0,68,0.00,,,0.00,weatherlink.com 1.10,2013-10-24 11:08:00,
2013-10-24 07:23:00,41.4,32.0,29.81,WSW,245,0.0,5.0,69,0.00,,,0.00,weatherlink.com 1.10,2013-10-24 11:23:00,
2013-10-24 07:38:00,41.6,32.0,29.81,WNW,300,2.0,7.0,69,0.00,,,0.00,weatherlink.com 1.10,2013-10-24 11:38:00,
2013-10-24 07:53:00,42.0,32.0,29.82,West,267,3.0,11.0,69,0.00,,,0.00,weatherlink.com 1.10,2013-10-24 11:53:00,
2013-10-24 08:08:00,42.3,32.0,29.83,SW,228,2.0,8.0,67,0.00,,,0.00,weatherlink.com 1.10,2013-10-24 12:08:00,
2013-10-24 08:23:00,42.5,31.0,29.84,West,281,3.0,10.0,65,0.00,,,0.00,weatherlink.com 1.10,2013-10-24 12:23:00,
2013-10-24 08:38:00,43.2,31.0,29.84,WSW,253,0.0,7.0,63,0.00,,,0.00,weatherlink.com 1.10,2013-10-24 12:38:00,
2013-10-24 08:53:00,43.3,30.0,29.84,WNW,298,6.0,11.0,61,0.00,,,0.00,weatherlink.com 1.10,2013-10-24 12:53:00,
2013-10-24 11:53:00,49.2,29.0,29.84,NNW,340,3.0,13.0,45,0.00,,,0.00,weatherlink.com 1.10,2013-10-24 15:53:00,
2013-10-24 12:08:00,49.5,28.0,29.83,NNW,338,9.0,17.0,43,0.00,,,0.00,weatherlink.com 1.10,2013-10-24 16:08:00,
2013-10-24 12:23:00,50.4,28.0,29.82,WNW,295,7.0,13.0,42,0.00,,,0.00,weatherlink.com 1.10,2013-10-24 16:23:00,
2013-10-24 12:38:00,50.3,28.0,29.82,NNW,335,7.0,18.0,42,0.00,,,0.00,weatherlink.com 1.10,2013-10-24 16:38:00,
2013-10-24 12:53:00,50.8,27.0,29.81,West,259,6.0,16.0,40,0.00,,,0.00,weatherlink.com 1.10,2013-10-24 16:53:00,
2013-10-24 13:09:00,50.8,27.0,29.81,WNW,295,4.0,16.0,40,0.00,,,0.00,weatherlink.com 1.10,2013-10-24 17:09:00,
2013-10-24 13:23:00,51.6,27.0,29.81,WNW,285,2.0,15.0,39,0.00,,,0.00,weatherlink.com 1.10,2013-10-24 17:23:00,
2013-10-24 13:38:00,51.7,27.0,29.80,West,260,4.0,14.0,38,0.00,,,0.00,weatherlink.com 1.10,2013-10-24 17:38:00,
2013-10-24 13:53:00,51.5,25.0,29.80,West,276,6.0,17.0,36,0.00,,,0.00,weatherlink.com 1.10,2013-10-24 17:53:00,
2013-10-24 14:08:00,51.7,25.0,29.80,NW,314,13.0,22.0,35,0.00,,,0.00,weatherlink.com 1.10,2013-10-24 18:08:00,
2013-10-24 14:23:00,52.3,25.0,29.80,West,264,11.0,19.0,35,0.00,,,0.00,weatherlink.com 1.10,2013-10-24 18:23:00,
2013-10-24 14:38:00,52.1,25.0,29.80,NW,306,8.0,23.0,35,0.00,,,0.00,weatherlink.com 1.10,2013-10-24 18:38:00,
2013-10-24 14:53:00,51.3,25.0,29.81,NW,311,8.0,18.0,36,0.00,,,0.00,weatherlink.com 1.10,2013-10-24 18:53:00,
2013-10-24 15:08:00,52.0,24.0,29.81,SSW,210,3.0,19.0,34,0.00,,,0.00,weatherlink.com 1.10,2013-10-24 19:08:00,
2013-10-24 15:23:00,51.8,24.0,29.82,NNW,337,8.0,16.0,34,0.00,,,0.00,weatherlink.com 1.10,2013-10-24 19:23:00,
2013-10-24 15:38:00,52.3,25.0,29.81,WSW,255,7.0,16.0,35,0.00,,,0.00,weatherlink.com 1.10,2013-10-24 19:38:00,
2013-10-24 15:54:00,52.5,24.0,29.82,West,276,13.0,17.0,33,0.00,,,0.00,weatherlink.com 1.10,2013-10-24 19:54:00,
2013-10-24 16:09:00,52.5,24.0,29.82,NW,316,5.0,19.0,33,0.00,,,0.00,weatherlink.com 1.10,2013-10-24 20:09:00,
2013-10-24 16:24:00,52.8,24.0,29.82,West,274,6.0,18.0,32,0.00,,,0.00,weatherlink.com 1.10,2013-10-24 20:24:00,
2013-10-24 16:39:00,52.2,24.0,29.83,NW,319,5.0,16.0,33,0.00,,,0.00,weatherlink.com 1.10,2013-10-24 20:39:00,
2013-10-24 16:54:00,51.9,23.0,29.83,NW,324,4.0,18.0,33,0.00,,,0.00,weatherlink.com 1.10,2013-10-24 20:54:00,
2013-10-24 17:09:00,51.6,23.0,29.83,WSW,250,3.0,14.0,33,0.00,,,0.00,weatherlink.com 1.10,2013-10-24 21:09:00,
2013-10-24 17:24:00,51.5,23.0,29.83,WSW,238,4.0,13.0,33,0.00,,,0.00,weatherlink.com 1.10,2013-10-24 21:24:00,
2013-10-24 17:39:00,51.3,23.0,29.84,SW,218,1.0,10.0,33,0.00,,,0.00,weatherlink.com 1.10,2013-10-24 21:39:00,
2013-10-24 17:54:00,50.9,23.0,29.84,SSW,211,4.0,10.0,33,0.00,,,0.00,weatherlink.com 1.10,2013-10-24 21:54:00,
2013-10-24 18:09:00,50.6,22.0,29.85,NW,307,3.0,13.0,33,0.00,,,0.00,weatherlink.com 1.10,2013-10-24 22:09:00,
2013-10-24 18:24:00,50.4,23.0,29.86,West,278,5.0,12.0,34,0.00,,,0.00,weatherlink.com 1.10,2013-10-24 22:24:00,
2013-10-24 18:39:00,49.8,23.0,29.86,WSW,245,3.0,10.0,35,0.00,,,0.00,weatherlink.com 1.10,2013-10-24 22:39:00,
2013-10-24 18:54:00,49.5,23.0,29.87,WSW,250,0.0,9.0,36,0.00,,,0.00,weatherlink.com 1.10,2013-10-24 22:54:00,
2013-10-24 19:24:00,48.2,24.0,29.88,SSW,205,0.0,10.0,39,0.00,,,0.00,weatherlink.com 1.10,2013-10-24 23:24:00,
2013-10-24 19:39:00,47.9,24.0,29.88,SW,229,2.0,9.0,40,0.00,,,0.00,weatherlink.com 1.10,2013-10-24 23:39:00,
2013-10-24 19:54:00,47.9,24.0,29.89,WNW,293,3.0,9.0,40,0.00,,,0.00,weatherlink.com 1.10,2013-10-24 23:54:00,
2013-10-24 20:09:00,47.7,25.0,29.89,SW,230,6.0,11.0,41,0.00,,,0.00,weatherlink.com 1.10,2013-10-25 00:09:00,
2013-10-24 20:24:00,47.5,25.0,29.89,ENE,59,0.0,13.0,42,0.00,,,0.00,weatherlink.com 1.10,2013-10-25 00:24:00,
2013-10-24 20:39:00,47.3,25.0,29.89,WSW,241,5.0,11.0,42,0.00,,,0.00,weatherlink.com 1.10,2013-10-25 00:39:00,
2013-10-24 20:54:00,47.2,26.0,29.89,North,351,2.0,8.0,43,0.00,,,0.00,weatherlink.com 1.10,2013-10-25 00:54:00,
2013-10-24 21:09:00,46.6,26.0,29.90,WNW,287,2.0,8.0,44,0.00,,,0.00,weatherlink.com 1.10,2013-10-25 01:09:00,
2013-10-24 21:24:00,46.1,26.0,29.90,SSW,208,7.0,7.0,45,0.00,,,0.00,weatherlink.com 1.10,2013-10-25 01:24:00,
2013-10-24 21:39:00,45.1,26.0,29.91,SW,221,2.0,6.0,47,0.00,,,0.00,weatherlink.com 1.10,2013-10-25 01:39:00,
2013-10-24 21:54:00,44.5,26.0,29.91,WSW,246,2.0,8.0,49,0.00,,,0.00,weatherlink.com 1.10,2013-10-25 01:54:00,
2013-10-24 22:09:00,44.5,26.0,29.91,WNW,300,2.0,6.0,49,0.00,,,0.00,weatherlink.com 1.10,2013-10-25 02:09:00,
2013-10-24 22:24:00,44.3,26.0,29.92,WNW,291,4.0,7.0,49,0.00,,,0.00,weatherlink.com 1.10,2013-10-25 02:24:00,
2013-10-24 22:39:00,44.8,27.0,29.92,West,278,3.0,11.0,49,0.00,,,0.00,weatherlink.com 1.10,2013-10-25 02:39:00,
2013-10-24 22:54:00,44.9,27.0,29.92,West,281,1.0,8.0,49,0.00,,,0.00,weatherlink.com 1.10,2013-10-25 02:54:00,
2013-10-24 23:09:00,44.4,27.0,29.93,West,259,3.0,5.0,50,0.00,,,0.00,weatherlink.com 1.10,2013-10-25 03:09:00,
2013-10-24 23:24:00,44.0,27.0,29.93,WSW,255,3.0,5.0,51,0.00,,,0.00,weatherlink.com 1.10,2013-10-25 03:24:00,
2013-10-24 23:39:00,43.6,27.0,29.93,WSW,257,2.0,4.0,52,0.00,,,0.00,weatherlink.com 1.10,2013-10-25 03:39:00,
2013-10-24 23:54:00,43.2,27.0,29.93,West,263,3.0,6.0,53,0.00,,,0.00,weatherlink.com 1.10,2013-10-25 03:54:00,